Ignace, Canada
Current Conditions -  °F | °C
As of 3:00 PM on Thursday 23 Oct 2014 (Local Time) from CYXL Reporting Station
Broken Clouds Broken Clouds  
Wind Chill: 55°   Ceiling: 24000
Heat Index: 55°   Visibility: 15mi
Dew Point: 48°   Wind: 9mph
Humidity: 77%   Direction: 160°SSE
Pressure: 29.82"   Gusts: NA
Location:  49.42°N, 91.67°W
Report Text: CYXL 232000Z 16008KT 15SM FEW016 SCT080 BKN240 13/09 A2982 RMK SC2AC1CI2 SLP108 DENSITY ALT 1400FT
Loading
Personal Weather Stations






























Interactive Weather Map
Tropical Storm Tracking
New forecast layout! Learn more

10-Day Weather Forecast

Advertisements
Track Severe Weather on mobile